sensor_id;sensor_type;location;lat;lon;timestamp;temperature;humidity
44509;DHT22;30214;52.246;14.408;2023-09-30T00:00:36;19.90;99.90
44509;DHT22;30214;52.246;14.408;2023-09-30T00:03:06;19.90;99.90
44509;DHT22;30214;52.246;14.408;2023-09-30T00:05:38;19.90;99.90
44509;DHT22;30214;52.246;14.408;2023-09-30T00:08:06;19.90;99.90
44509;DHT22;30214;52.246;14.408;2023-09-30T00:10:34;19.90;99.90
44509;DHT22;30214;52.246;14.408;2023-09-30T00:13:06;19.90;99.90
44509;DHT22;30214;52.246;14.408;2023-09-30T00:15:37;19.90;99.90
44509;DHT22;30214;52.246;14.408;2023-09-30T00:18:10;19.90;99.90
44509;DHT22;30214;52.246;14.408;2023-09-30T00:20:39;19.80;99.90
44509;DHT22;30214;52.246;14.408;2023-09-30T00:23:09;19.90;99.90
44509;DHT22;30214;52.246;14.408;2023-09-30T00:25:44;19.90;99.90
44509;DHT22;30214;52.246;14.408;2023-09-30T00:28:15;19.80;99.90
44509;DHT22;30214;52.246;14.408;2023-09-30T00:30:46;19.80;99.90
44509;DHT22;30214;52.246;14.408;2023-09-30T00:33:16;19.80;99.90
44509;DHT22;30214;52.246;14.408;2023-09-30T00:35:56;19.80;99.90
44509;DHT22;30214;52.246;14.408;2023-09-30T00:38:24;19.70;99.90
44509;DHT22;30214;52.246;14.408;2023-09-30T00:40:58;19.60;99.90
44509;DHT22;30214;52.246;14.408;2023-09-30T00:43:32;19.40;99.90
44509;DHT22;30214;52.246;14.408;2023-09-30T00:46:06;19.20;99.90
44509;DHT22;30214;52.246;14.408;2023-09-30T00:48:40;18.90;99.90
44509;DHT22;30214;52.246;14.408;2023-09-30T00:51:10;18.80;99.90
44509;DHT22;30214;52.246;14.408;2023-09-30T00:53:42;18.60;99.90
44509;DHT22;30214;52.246;14.408;2023-09-30T00:56:14;18.50;99.90
44509;DHT22;30214;52.246;14.408;2023-09-30T00:58:48;18.30;99.90
44509;DHT22;30214;52.246;14.408;2023-09-30T01:01:20;18.20;99.90
44509;DHT22;30214;52.246;14.408;2023-09-30T01:03:48;18.20;99.90
44509;DHT22;30214;52.246;14.408;2023-09-30T01:06:17;18.10;99.90
44509;DHT22;30214;52.246;14.408;2023-09-30T01:08:47;18.10;99.90
44509;DHT22;30214;52.246;14.408;2023-09-30T01:11:17;18.00;99.90
44509;DHT22;30214;52.246;14.408;2023-09-30T01:13:47;18.00;99.90
44509;DHT22;30214;52.246;14.408;2023-09-30T01:16:19;17.90;99.90
44509;DHT22;30214;52.246;14.408;2023-09-30T01:18:49;17.90;99.90
44509;DHT22;30214;52.246;14.408;2023-09-30T01:21:22;17.90;99.90
44509;DHT22;30214;52.246;14.408;2023-09-30T01:23:55;17.80;99.90
44509;DHT22;30214;52.246;14.408;2023-09-30T01:26:27;17.80;99.90
44509;DHT22;30214;52.246;14.408;2023-09-30T01:29:04;17.70;99.90
44509;DHT22;30214;52.246;14.408;2023-09-30T01:31:35;17.80;99.90
44509;DHT22;30214;52.246;14.408;2023-09-30T01:34:06;17.80;99.90
44509;DHT22;30214;52.246;14.408;2023-09-30T01:36:34;17.70;99.90
44509;DHT22;30214;52.246;14.408;2023-09-30T01:39:08;17.70;99.90
44509;DHT22;30214;52.246;14.408;2023-09-30T01:41:40;17.60;99.90
44509;DHT22;30214;52.246;14.408;2023-09-30T01:44:10;17.60;99.90
44509;DHT22;30214;52.246;14.408;2023-09-30T01:46:39;17.60;99.90
44509;DHT22;30214;52.246;14.408;2023-09-30T01:49:08;17.60;99.90
44509;DHT22;30214;52.246;14.408;2023-09-30T01:51:38;17.50;99.90
44509;DHT22;30214;52.246;14.408;2023-09-30T01:54:10;17.60;99.90
44509;DHT22;30214;52.246;14.408;2023-09-30T01:56:38;17.60;99.90
44509;DHT22;30214;52.246;14.408;2023-09-30T01:59:13;17.50;99.90
44509;DHT22;30214;52.246;14.408;2023-09-30T02:01:48;17.50;99.90
44509;DHT22;30214;52.246;14.408;2023-09-30T02:04:18;17.50;99.90
44509;DHT22;30214;52.246;14.408;2023-09-30T02:06:50;17.50;99.90
44509;DHT22;30214;52.246;14.408;2023-09-30T02:09:22;17.50;99.90
44509;DHT22;30214;52.246;14.408;2023-09-30T02:11:52;17.50;99.90
44509;DHT22;30214;52.246;14.408;2023-09-30T02:14:21;17.40;99.90
44509;DHT22;30214;52.246;14.408;2023-09-30T02:16:49;17.40;99.90
44509;DHT22;30214;52.246;14.408;2023-09-30T02:19:18;17.40;99.90
44509;DHT22;30214;52.246;14.408;2023-09-30T02:21:49;17.40;99.90
44509;DHT22;30214;52.246;14.408;2023-09-30T02:24:19;17.40;99.90
44509;DHT22;30214;52.246;14.408;2023-09-30T02:26:52;17.40;99.90
44509;DHT22;30214;52.246;14.408;2023-09-30T02:29:22;17.30;99.90
44509;DHT22;30214;52.246;14.408;2023-09-30T02:31:51;17.20;99.90
44509;DHT22;30214;52.246;14.408;2023-09-30T02:34:21;17.10;99.90
44509;DHT22;30214;52.246;14.408;2023-09-30T02:36:51;17.00;99.90
44509;DHT22;30214;52.246;14.408;2023-09-30T02:39:23;16.90;99.90
44509;DHT22;30214;52.246;14.408;2023-09-30T02:41:56;16.80;99.90
44509;DHT22;30214;52.246;14.408;2023-09-30T02:44:26;16.70;99.90
44509;DHT22;30214;52.246;14.408;2023-09-30T02:46:55;16.60;99.90
44509;DHT22;30214;52.246;14.408;2023-09-30T02:49:26;16.50;99.90
44509;DHT22;30214;52.246;14.408;2023-09-30T02:51:56;16.40;99.90
44509;DHT22;30214;52.246;14.408;2023-09-30T02:54:26;16.20;99.90
44509;DHT22;30214;52.246;14.408;2023-09-30T02:56:58;16.10;99.90
44509;DHT22;30214;52.246;14.408;2023-09-30T02:59:27;16.00;99.90
44509;DHT22;30214;52.246;14.408;2023-09-30T03:01:56;15.90;99.90
44509;DHT22;30214;52.246;14.408;2023-09-30T03:04:38;15.90;99.90
44509;DHT22;30214;52.246;14.408;2023-09-30T03:07:11;15.80;99.90
44509;DHT22;30214;52.246;14.408;2023-09-30T03:09:42;15.70;99.90
44509;DHT22;30214;52.246;14.408;2023-09-30T03:12:14;15.70;99.90
44509;DHT22;30214;52.246;14.408;2023-09-30T03:14:45;15.70;99.90
44509;DHT22;30214;52.246;14.408;2023-09-30T03:17:14;15.60;99.90
44509;DHT22;30214;52.246;14.408;2023-09-30T03:19:43;15.50;99.90
44509;DHT22;30214;52.246;14.408;2023-09-30T03:22:12;15.50;99.90
44509;DHT22;30214;52.246;14.408;2023-09-30T03:24:41;15.50;99.90
44509;DHT22;30214;52.246;14.408;2023-09-30T03:27:13;15.40;99.90
44509;DHT22;30214;52.246;14.408;2023-09-30T03:29:41;15.30;99.90
44509;DHT22;30214;52.246;14.408;2023-09-30T03:32:11;15.20;99.90
44509;DHT22;30214;52.246;14.408;2023-09-30T03:34:40;15.20;99.90
44509;DHT22;30214;52.246;14.408;2023-09-30T03:37:11;15.10;99.90
44509;DHT22;30214;52.246;14.408;2023-09-30T03:39:40;15.10;99.90
44509;DHT22;30214;52.246;14.408;2023-09-30T03:42:08;15.10;99.90
44509;DHT22;30214;52.246;14.408;2023-09-30T03:44:40;15.00;99.90
44509;DHT22;30214;52.246;14.408;2023-09-30T03:47:09;14.90;99.90
44509;DHT22;30214;52.246;14.408;2023-09-30T03:49:38;14.90;99.90
44509;DHT22;30214;52.246;14.408;2023-09-30T03:52:14;14.80;99.90
44509;DHT22;30214;52.246;14.408;2023-09-30T03:54:44;14.80;99.90
44509;DHT22;30214;52.246;14.408;2023-09-30T03:57:12;14.70;99.90
44509;DHT22;30214;52.246;14.408;2023-09-30T03:59:45;14.70;99.90
44509;DHT22;30214;52.246;14.408;2023-09-30T04:02:13;14.60;99.90
44509;DHT22;30214;52.246;14.408;2023-09-30T04:04:42;14.50;99.90
44509;DHT22;30214;52.246;14.408;2023-09-30T04:07:12;14.40;99.90
44509;DHT22;30214;52.246;14.408;2023-09-30T04:09:43;14.30;99.90
44509;DHT22;30214;52.246;14.408;2023-09-30T04:12:11;14.30;99.90
44509;DHT22;30214;52.246;14.408;2023-09-30T04:14:38;14.30;99.90
44509;DHT22;30214;52.246;14.408;2023-09-30T04:17:10;14.20;99.90
44509;DHT22;30214;52.246;14.408;2023-09-30T04:19:37;14.10;99.90
44509;DHT22;30214;52.246;14.408;2023-09-30T04:22:05;14.00;99.90
44509;DHT22;30214;52.246;14.408;2023-09-30T04:24:35;13.90;99.90
44509;DHT22;30214;52.246;14.408;2023-09-30T04:27:04;13.90;99.90
44509;DHT22;30214;52.246;14.408;2023-09-30T04:29:35;13.80;99.90
44509;DHT22;30214;52.246;14.408;2023-09-30T04:32:05;13.80;99.90
44509;DHT22;30214;52.246;14.408;2023-09-30T04:34:35;13.70;99.90
44509;DHT22;30214;52.246;14.408;2023-09-30T04:37:04;13.60;99.90
44509;DHT22;30214;52.246;14.408;2023-09-30T04:39:35;13.50;99.90
44509;DHT22;30214;52.246;14.408;2023-09-30T04:42:06;13.40;99.90
44509;DHT22;30214;52.246;14.408;2023-09-30T04:44:37;13.30;99.90
44509;DHT22;30214;52.246;14.408;2023-09-30T04:47:10;13.20;99.90
44509;DHT22;30214;52.246;14.408;2023-09-30T04:49:41;13.10;99.90
44509;DHT22;30214;52.246;14.408;2023-09-30T04:52:09;13.00;99.90
44509;DHT22;30214;52.246;14.408;2023-09-30T04:54:38;12.90;99.90
44509;DHT22;30214;52.246;14.408;2023-09-30T04:57:10;12.90;99.90
44509;DHT22;30214;52.246;14.408;2023-09-30T04:59:38;12.90;99.90
44509;DHT22;30214;52.246;14.408;2023-09-30T05:02:09;12.80;99.90
44509;DHT22;30214;52.246;14.408;2023-09-30T05:04:37;12.70;99.90
44509;DHT22;30214;52.246;14.408;2023-09-30T05:07:25;12.70;99.90
44509;DHT22;30214;52.246;14.408;2023-09-30T05:09:56;12.70;99.90
44509;DHT22;30214;52.246;14.408;2023-09-30T05:12:27;12.60;99.90
44509;DHT22;30214;52.246;14.408;2023-09-30T05:14:55;12.50;99.90
44509;DHT22;30214;52.246;14.408;2023-09-30T05:17:28;12.50;99.90
44509;DHT22;30214;52.246;14.408;2023-09-30T05:19:59;12.60;99.90
44509;DHT22;30214;52.246;14.408;2023-09-30T05:22:29;12.60;99.90
44509;DHT22;30214;52.246;14.408;2023-09-30T05:24:58;12.40;99.90
44509;DHT22;30214;52.246;14.408;2023-09-30T05:27:26;12.30;99.90
44509;DHT22;30214;52.246;14.408;2023-09-30T05:29:55;12.20;99.90
44509;DHT22;30214;52.246;14.408;2023-09-30T05:32:24;12.20;99.90
44509;DHT22;30214;52.246;14.408;2023-09-30T05:34:54;12.20;99.90
44509;DHT22;30214;52.246;14.408;2023-09-30T05:37:22;12.30;99.90
44509;DHT22;30214;52.246;14.408;2023-09-30T05:39:50;12.40;99.90
44509;DHT22;30214;52.246;14.408;2023-09-30T05:42:17;12.50;99.90
44509;DHT22;30214;52.246;14.408;2023-09-30T05:44:44;12.60;99.90
44509;DHT22;30214;52.246;14.408;2023-09-30T05:47:11;12.80;99.90
44509;DHT22;30214;52.246;14.408;2023-09-30T05:49:39;12.80;99.90
44509;DHT22;30214;52.246;14.408;2023-09-30T05:52:05;12.90;99.90
44509;DHT22;30214;52.246;14.408;2023-09-30T05:54:32;12.90;99.90
44509;DHT22;30214;52.246;14.408;2023-09-30T05:57:00;13.00;99.90
44509;DHT22;30214;52.246;14.408;2023-09-30T05:59:28;13.00;99.90
44509;DHT22;30214;52.246;14.408;2023-09-30T06:01:56;13.00;99.90
44509;DHT22;30214;52.246;14.408;2023-09-30T06:04:22;13.00;99.90
44509;DHT22;30214;52.246;14.408;2023-09-30T06:06:49;13.10;99.90
44509;DHT22;30214;52.246;14.408;2023-09-30T06:09:16;13.20;99.90
44509;DHT22;30214;52.246;14.408;2023-09-30T06:11:43;13.30;99.90
44509;DHT22;30214;52.246;14.408;2023-09-30T06:14:11;13.30;99.90
44509;DHT22;30214;52.246;14.408;2023-09-30T06:16:39;13.40;99.90
44509;DHT22;30214;52.246;14.408;2023-09-30T06:19:06;13.50;99.90
44509;DHT22;30214;52.246;14.408;2023-09-30T06:21:32;13.40;99.90
44509;DHT22;30214;52.246;14.408;2023-09-30T06:24:00;13.40;99.90
44509;DHT22;30214;52.246;14.408;2023-09-30T06:26:27;13.60;99.90
44509;DHT22;30214;52.246;14.408;2023-09-30T06:28:55;13.80;99.90
44509;DHT22;30214;52.246;14.408;2023-09-30T06:31:23;14.00;99.90
44509;DHT22;30214;52.246;14.408;2023-09-30T06:33:50;14.20;99.90
44509;DHT22;30214;52.246;14.408;2023-09-30T06:36:17;14.40;99.90
44509;DHT22;30214;52.246;14.408;2023-09-30T06:38:44;14.50;99.90
44509;DHT22;30214;52.246;14.408;2023-09-30T06:41:17;14.60;99.90
44509;DHT22;30214;52.246;14.408;2023-09-30T06:43:44;14.70;99.90
44509;DHT22;30214;52.246;14.408;2023-09-30T06:46:12;14.90;99.90
44509;DHT22;30214;52.246;14.408;2023-09-30T06:48:41;15.10;99.90
44509;DHT22;30214;52.246;14.408;2023-09-30T06:51:12;15.30;99.90
44509;DHT22;30214;52.246;14.408;2023-09-30T06:53:39;15.40;99.90
44509;DHT22;30214;52.246;14.408;2023-09-30T06:56:06;15.50;99.90
44509;DHT22;30214;52.246;14.408;2023-09-30T06:58:33;15.70;99.90
44509;DHT22;30214;52.246;14.408;2023-09-30T07:01:01;15.70;99.90
44509;DHT22;30214;52.246;14.408;2023-09-30T07:03:28;15.60;99.90
44509;DHT22;30214;52.246;14.408;2023-09-30T07:05:57;15.70;99.90
44509;DHT22;30214;52.246;14.408;2023-09-30T07:08:27;15.70;99.90
44509;DHT22;30214;52.246;14.408;2023-09-30T07:10:55;15.60;99.90
44509;DHT22;30214;52.246;14.408;2023-09-30T07:13:22;15.50;99.90
44509;DHT22;30214;52.246;14.408;2023-09-30T07:15:49;15.40;99.90
44509;DHT22;30214;52.246;14.408;2023-09-30T07:18:17;15.40;99.90
44509;DHT22;30214;52.246;14.408;2023-09-30T07:20:44;15.40;99.90
44509;DHT22;30214;52.246;14.408;2023-09-30T07:23:13;15.30;99.90
44509;DHT22;30214;52.246;14.408;2023-09-30T07:25:40;15.20;99.90
44509;DHT22;30214;52.246;14.408;2023-09-30T07:28:08;15.20;99.90
44509;DHT22;30214;52.246;14.408;2023-09-30T07:30:38;15.30;99.90
44509;DHT22;30214;52.246;14.408;2023-09-30T07:33:05;15.40;99.90
44509;DHT22;30214;52.246;14.408;2023-09-30T07:35:33;15.50;99.90
44509;DHT22;30214;52.246;14.408;2023-09-30T07:38:01;15.70;99.90
44509;DHT22;30214;52.246;14.408;2023-09-30T07:40:29;15.70;99.90
44509;DHT22;30214;52.246;14.408;2023-09-30T07:42:56;15.70;99.90
44509;DHT22;30214;52.246;14.408;2023-09-30T07:45:24;15.80;99.90
44509;DHT22;30214;52.246;14.408;2023-09-30T07:47:50;16.00;99.90
44509;DHT22;30214;52.246;14.408;2023-09-30T07:50:17;16.20;99.90
44509;DHT22;30214;52.246;14.408;2023-09-30T07:52:45;16.20;99.90
44509;DHT22;30214;52.246;14.408;2023-09-30T07:55:12;16.20;99.90
44509;DHT22;30214;52.246;14.408;2023-09-30T07:57:42;16.10;99.90
44509;DHT22;30214;52.246;14.408;2023-09-30T08:00:14;15.90;99.90
44509;DHT22;30214;52.246;14.408;2023-09-30T08:02:42;15.80;99.90
44509;DHT22;30214;52.246;14.408;2023-09-30T08:05:11;15.90;99.90
44509;DHT22;30214;52.246;14.408;2023-09-30T08:07:38;16.00;99.90
44509;DHT22;30214;52.246;14.408;2023-09-30T08:10:06;16.00;99.90
44509;DHT22;30214;52.246;14.408;2023-09-30T08:12:38;15.90;99.90
44509;DHT22;30214;52.246;14.408;2023-09-30T08:15:08;16.10;99.90
44509;DHT22;30214;52.246;14.408;2023-09-30T08:17:37;16.20;99.90
44509;DHT22;30214;52.246;14.408;2023-09-30T08:20:05;16.30;99.90
44509;DHT22;30214;52.246;14.408;2023-09-30T08:22:34;16.40;99.90
44509;DHT22;30214;52.246;14.408;2023-09-30T08:25:01;16.50;99.90
44509;DHT22;30214;52.246;14.408;2023-09-30T08:27:28;16.60;99.90
44509;DHT22;30214;52.246;14.408;2023-09-30T08:29:54;16.80;99.90
44509;DHT22;30214;52.246;14.408;2023-09-30T08:32:23;17.00;99.90
44509;DHT22;30214;52.246;14.408;2023-09-30T08:34:50;17.20;99.90
44509;DHT22;30214;52.246;14.408;2023-09-30T08:37:17;17.10;99.90
44509;DHT22;30214;52.246;14.408;2023-09-30T08:39:44;17.00;99.90
44509;DHT22;30214;52.246;14.408;2023-09-30T08:42:11;17.10;99.90
44509;DHT22;30214;52.246;14.408;2023-09-30T08:44:38;17.30;99.90
44509;DHT22;30214;52.246;14.408;2023-09-30T08:47:06;17.50;99.90
44509;DHT22;30214;52.246;14.408;2023-09-30T08:49:37;17.70;99.90
44509;DHT22;30214;52.246;14.408;2023-09-30T08:52:07;17.80;99.90
44509;DHT22;30214;52.246;14.408;2023-09-30T08:54:36;17.70;99.90
44509;DHT22;30214;52.246;14.408;2023-09-30T08:57:03;17.60;99.90
44509;DHT22;30214;52.246;14.408;2023-09-30T08:59:31;17.50;99.90
44509;DHT22;30214;52.246;14.408;2023-09-30T09:02:01;17.40;99.90
44509;DHT22;30214;52.246;14.408;2023-09-30T09:04:29;17.40;99.90
44509;DHT22;30214;52.246;14.408;2023-09-30T09:06:58;17.20;99.90
44509;DHT22;30214;52.246;14.408;2023-09-30T09:09:25;17.10;99.90
44509;DHT22;30214;52.246;14.408;2023-09-30T09:11:52;17.20;99.90
44509;DHT22;30214;52.246;14.408;2023-09-30T09:14:19;17.30;99.90
44509;DHT22;30214;52.246;14.408;2023-09-30T09:16:53;17.40;99.90
44509;DHT22;30214;52.246;14.408;2023-09-30T09:19:21;17.50;99.90
44509;DHT22;30214;52.246;14.408;2023-09-30T09:21:55;17.60;99.90
44509;DHT22;30214;52.246;14.408;2023-09-30T09:24:34;17.70;99.90
44509;DHT22;30214;52.246;14.408;2023-09-30T09:27:05;17.70;99.90
44509;DHT22;30214;52.246;14.408;2023-09-30T09:29:32;17.70;99.90
44509;DHT22;30214;52.246;14.408;2023-09-30T09:32:12;17.70;99.90
44509;DHT22;30214;52.246;14.408;2023-09-30T09:34:40;17.70;99.90
44509;DHT22;30214;52.246;14.408;2023-09-30T09:37:14;17.70;99.90
44509;DHT22;30214;52.246;14.408;2023-09-30T09:39:51;17.80;99.90
44509;DHT22;30214;52.246;14.408;2023-09-30T09:42:26;17.60;99.90
44509;DHT22;30214;52.246;14.408;2023-09-30T09:44:56;17.50;99.90
44509;DHT22;30214;52.246;14.408;2023-09-30T09:47:23;17.60;99.90
44509;DHT22;30214;52.246;14.408;2023-09-30T09:49:51;17.70;99.90
44509;DHT22;30214;52.246;14.408;2023-09-30T09:52:21;17.90;99.90
44509;DHT22;30214;52.246;14.408;2023-09-30T09:54:50;17.90;99.90
44509;DHT22;30214;52.246;14.408;2023-09-30T09:57:18;18.00;99.90
44509;DHT22;30214;52.246;14.408;2023-09-30T09:59:46;18.20;99.90
44509;DHT22;30214;52.246;14.408;2023-09-30T10:02:15;18.30;99.90
44509;DHT22;30214;52.246;14.408;2023-09-30T10:04:44;18.40;99.90
44509;DHT22;30214;52.246;14.408;2023-09-30T10:07:14;18.50;99.90
44509;DHT22;30214;52.246;14.408;2023-09-30T10:09:45;18.60;99.90
44509;DHT22;30214;52.246;14.408;2023-09-30T10:12:15;18.60;99.90
44509;DHT22;30214;52.246;14.408;2023-09-30T10:14:42;18.80;99.90
44509;DHT22;30214;52.246;14.408;2023-09-30T10:17:10;18.90;99.90
44509;DHT22;30214;52.246;14.408;2023-09-30T10:20:03;18.90;99.90
44509;DHT22;30214;52.246;14.408;2023-09-30T10:22:30;18.90;99.90
44509;DHT22;30214;52.246;14.408;2023-09-30T10:24:58;19.00;99.90
44509;DHT22;30214;52.246;14.408;2023-09-30T10:27:31;19.10;99.90
44509;DHT22;30214;52.246;14.408;2023-09-30T10:29:59;19.20;99.90
44509;DHT22;30214;52.246;14.408;2023-09-30T10:35:43;18.90;99.90
44509;DHT22;30214;52.246;14.408;2023-09-30T10:38:38;18.90;99.90
44509;DHT22;30214;52.246;14.408;2023-09-30T10:41:09;18.90;99.90
44509;DHT22;30214;52.246;14.408;2023-09-30T10:43:42;18.90;99.90
44509;DHT22;30214;52.246;14.408;2023-09-30T10:46:30;18.80;99.90
44509;DHT22;30214;52.246;14.408;2023-09-30T10:49:15;18.80;99.90
44509;DHT22;30214;52.246;14.408;2023-09-30T10:51:43;18.80;99.90
44509;DHT22;30214;52.246;14.408;2023-09-30T10:54:12;19.10;99.90
44509;DHT22;30214;52.246;14.408;2023-09-30T10:56:39;19.10;99.90
44509;DHT22;30214;52.246;14.408;2023-09-30T10:59:08;19.10;99.90
44509;DHT22;30214;52.246;14.408;2023-09-30T11:01:35;19.20;99.90
44509;DHT22;30214;52.246;14.408;2023-09-30T11:04:03;19.10;99.90
44509;DHT22;30214;52.246;14.408;2023-09-30T11:06:32;19.00;99.90
44509;DHT22;30214;52.246;14.408;2023-09-30T11:09:00;19.20;99.90
44509;DHT22;30214;52.246;14.408;2023-09-30T11:11:35;19.30;99.90
44509;DHT22;30214;52.246;14.408;2023-09-30T11:14:03;19.30;99.90
44509;DHT22;30214;52.246;14.408;2023-09-30T11:16:41;19.30;99.90
44509;DHT22;30214;52.246;14.408;2023-09-30T11:19:09;19.50;99.50
44509;DHT22;30214;52.246;14.408;2023-09-30T11:21:37;19.60;99.90
44509;DHT22;30214;52.246;14.408;2023-09-30T11:24:06;19.40;99.80
44509;DHT22;30214;52.246;14.408;2023-09-30T11:26:34;19.40;99.70
44509;DHT22;30214;52.246;14.408;2023-09-30T11:29:08;19.30;99.90
44509;DHT22;30214;52.246;14.408;2023-09-30T11:31:41;19.20;99.70
44509;DHT22;30214;52.246;14.408;2023-09-30T11:34:10;19.20;99.90
44509;DHT22;30214;52.246;14.408;2023-09-30T11:36:39;19.20;98.90
44509;DHT22;30214;52.246;14.408;2023-09-30T11:39:08;19.20;99.10
44509;DHT22;30214;52.246;14.408;2023-09-30T11:41:40;19.10;99.20
44509;DHT22;30214;52.246;14.408;2023-09-30T11:44:08;19.20;98.60
44509;DHT22;30214;52.246;14.408;2023-09-30T11:46:52;19.20;98.70
44509;DHT22;30214;52.246;14.408;2023-09-30T11:49:30;19.20;98.80
44509;DHT22;30214;52.246;14.408;2023-09-30T11:51:58;19.20;98.50
44509;DHT22;30214;52.246;14.408;2023-09-30T11:54:29;19.40;98.10
44509;DHT22;30214;52.246;14.408;2023-09-30T11:56:57;19.50;97.20
44509;DHT22;30214;52.246;14.408;2023-09-30T11:59:24;19.60;97.60
44509;DHT22;30214;52.246;14.408;2023-09-30T12:01:52;19.70;96.90
44509;DHT22;30214;52.246;14.408;2023-09-30T12:04:20;19.60;97.30
44509;DHT22;30214;52.246;14.408;2023-09-30T12:06:48;19.30;97.00
44509;DHT22;30214;52.246;14.408;2023-09-30T12:09:15;19.10;97.00
44509;DHT22;30214;52.246;14.408;2023-09-30T12:11:48;19.00;96.50
44509;DHT22;30214;52.246;14.408;2023-09-30T12:14:15;19.00;97.10
44509;DHT22;30214;52.246;14.408;2023-09-30T12:16:42;18.90;97.10
44509;DHT22;30214;52.246;14.408;2023-09-30T12:19:13;18.80;97.30
44509;DHT22;30214;52.246;14.408;2023-09-30T12:21:41;18.80;97.30
44509;DHT22;30214;52.246;14.408;2023-09-30T12:24:09;18.90;97.60
44509;DHT22;30214;52.246;14.408;2023-09-30T12:26:36;19.00;97.20
44509;DHT22;30214;52.246;14.408;2023-09-30T12:29:04;19.00;96.90
44509;DHT22;30214;52.246;14.408;2023-09-30T12:31:31;19.00;96.70
44509;DHT22;30214;52.246;14.408;2023-09-30T12:33:59;19.00;96.80
44509;DHT22;30214;52.246;14.408;2023-09-30T12:36:27;19.10;97.00
44509;DHT22;30214;52.246;14.408;2023-09-30T12:38:54;19.20;96.70
44509;DHT22;30214;52.246;14.408;2023-09-30T12:41:22;19.20;96.50
44509;DHT22;30214;52.246;14.408;2023-09-30T12:43:49;19.20;96.90
44509;DHT22;30214;52.246;14.408;2023-09-30T12:46:16;19.30;96.30
44509;DHT22;30214;52.246;14.408;2023-09-30T12:48:43;19.40;95.70
44509;DHT22;30214;52.246;14.408;2023-09-30T12:51:11;19.40;95.00
44509;DHT22;30214;52.246;14.408;2023-09-30T12:53:39;19.50;94.20
44509;DHT22;30214;52.246;14.408;2023-09-30T12:56:06;19.50;94.50
44509;DHT22;30214;52.246;14.408;2023-09-30T12:58:33;19.50;93.90
44509;DHT22;30214;52.246;14.408;2023-09-30T13:01:00;19.60;92.70
44509;DHT22;30214;52.246;14.408;2023-09-30T13:03:28;19.70;92.40
44509;DHT22;30214;52.246;14.408;2023-09-30T13:05:55;19.80;92.40
44509;DHT22;30214;52.246;14.408;2023-09-30T13:08:22;20.00;92.50
44509;DHT22;30214;52.246;14.408;2023-09-30T13:10:50;20.00;92.30
44509;DHT22;30214;52.246;14.408;2023-09-30T13:13:18;20.10;91.60
44509;DHT22;30214;52.246;14.408;2023-09-30T13:15:45;20.00;91.00
44509;DHT22;30214;52.246;14.408;2023-09-30T13:18:12;20.00;91.70
44509;DHT22;30214;52.246;14.408;2023-09-30T13:20:39;19.90;91.50
44509;DHT22;30214;52.246;14.408;2023-09-30T13:23:06;19.70;91.50
44509;DHT22;30214;52.246;14.408;2023-09-30T13:25:33;19.70;91.40
44509;DHT22;30214;52.246;14.408;2023-09-30T13:28:03;19.50;92.10
44509;DHT22;30214;52.246;14.408;2023-09-30T13:30:30;19.50;92.50
44509;DHT22;30214;52.246;14.408;2023-09-30T13:32:58;19.40;92.50
44509;DHT22;30214;52.246;14.408;2023-09-30T13:35:25;19.40;92.80
44509;DHT22;30214;52.246;14.408;2023-09-30T13:37:52;19.40;93.30
44509;DHT22;30214;52.246;14.408;2023-09-30T13:40:19;19.40;93.10
44509;DHT22;30214;52.246;14.408;2023-09-30T13:42:46;19.50;93.00
44509;DHT22;30214;52.246;14.408;2023-09-30T13:45:23;19.50;94.10
44509;DHT22;30214;52.246;14.408;2023-09-30T13:47:51;19.50;93.50
44509;DHT22;30214;52.246;14.408;2023-09-30T13:50:18;19.50;93.60
44509;DHT22;30214;52.246;14.408;2023-09-30T13:52:45;19.50;93.20
44509;DHT22;30214;52.246;14.408;2023-09-30T13:55:13;19.60;93.80
44509;DHT22;30214;52.246;14.408;2023-09-30T13:57:46;19.60;91.90
44509;DHT22;30214;52.246;14.408;2023-09-30T14:00:17;19.70;92.70
44509;DHT22;30214;52.246;14.408;2023-09-30T14:02:46;19.70;92.30
44509;DHT22;30214;52.246;14.408;2023-09-30T14:05:13;19.70;92.50
44509;DHT22;30214;52.246;14.408;2023-09-30T14:07:41;19.70;93.00
44509;DHT22;30214;52.246;14.408;2023-09-30T14:10:11;19.80;93.00
44509;DHT22;30214;52.246;14.408;2023-09-30T14:12:39;19.80;92.90
44509;DHT22;30214;52.246;14.408;2023-09-30T14:15:10;19.80;93.10
44509;DHT22;30214;52.246;14.408;2023-09-30T14:17:40;19.70;93.00
44509;DHT22;30214;52.246;14.408;2023-09-30T14:20:08;19.60;93.10
44509;DHT22;30214;52.246;14.408;2023-09-30T14:22:38;19.70;93.30
44509;DHT22;30214;52.246;14.408;2023-09-30T14:25:10;19.70;93.30
44509;DHT22;30214;52.246;14.408;2023-09-30T14:27:37;19.70;92.50
44509;DHT22;30214;52.246;14.408;2023-09-30T14:30:06;19.70;92.50
44509;DHT22;30214;52.246;14.408;2023-09-30T14:32:34;19.70;92.60
44509;DHT22;30214;52.246;14.408;2023-09-30T14:35:02;19.70;92.70
44509;DHT22;30214;52.246;14.408;2023-09-30T14:37:31;19.70;93.00
44509;DHT22;30214;52.246;14.408;2023-09-30T14:39:58;19.70;92.60
44509;DHT22;30214;52.246;14.408;2023-09-30T14:42:25;19.70;92.30
44509;DHT22;30214;52.246;14.408;2023-09-30T14:44:51;19.70;92.10
44509;DHT22;30214;52.246;14.408;2023-09-30T14:47:18;19.70;92.60
44509;DHT22;30214;52.246;14.408;2023-09-30T14:49:45;19.60;92.60
44509;DHT22;30214;52.246;14.408;2023-09-30T14:52:14;19.60;92.90
44509;DHT22;30214;52.246;14.408;2023-09-30T14:54:41;19.60;93.10
44509;DHT22;30214;52.246;14.408;2023-09-30T14:57:09;19.50;92.80
44509;DHT22;30214;52.246;14.408;2023-09-30T14:59:37;19.40;93.00
44509;DHT22;30214;52.246;14.408;2023-09-30T15:02:04;19.40;93.30
44509;DHT22;30214;52.246;14.408;2023-09-30T15:04:34;19.20;93.70
44509;DHT22;30214;52.246;14.408;2023-09-30T15:07:01;19.20;93.70
44509;DHT22;30214;52.246;14.408;2023-09-30T15:09:30;19.20;94.30
44509;DHT22;30214;52.246;14.408;2023-09-30T15:11:57;19.00;94.00
44509;DHT22;30214;52.246;14.408;2023-09-30T15:14:24;19.00;94.70
44509;DHT22;30214;52.246;14.408;2023-09-30T15:16:50;18.90;95.00
44509;DHT22;30214;52.246;14.408;2023-09-30T15:19:17;18.90;94.90
44509;DHT22;30214;52.246;14.408;2023-09-30T15:21:44;18.90;95.00
44509;DHT22;30214;52.246;14.408;2023-09-30T15:24:11;18.80;95.30
44509;DHT22;30214;52.246;14.408;2023-09-30T15:26:40;18.70;95.80
44509;DHT22;30214;52.246;14.408;2023-09-30T15:29:07;18.60;95.70
44509;DHT22;30214;52.246;14.408;2023-09-30T15:31:34;18.60;95.10